createdAt,value
2018-05-24T00:02:11.925Z,100059
2018-05-24T00:04:40.749Z,100055
2018-05-24T00:07:08.841Z,100054
2018-05-24T00:09:36.908Z,100059
2018-05-24T00:12:05.736Z,100059
2018-05-24T00:14:33.795Z,100051
2018-05-24T00:17:02.717Z,100052
2018-05-24T00:19:33.357Z,100052
2018-05-24T00:22:01.449Z,100050
2018-05-24T00:24:29.535Z,100055
2018-05-24T00:26:57.587Z,100049
2018-05-24T00:29:26.422Z,100050
2018-05-24T00:31:54.483Z,100058
2018-05-24T00:34:23.304Z,100049
2018-05-24T00:36:51.396Z,100050
2018-05-24T00:39:19.455Z,100048
2018-05-24T00:41:48.289Z,100045
2018-05-24T00:44:16.383Z,100047
2018-05-24T00:46:44.407Z,100037
2018-05-24T00:49:12.534Z,100031
2018-05-24T00:51:40.598Z,100030
2018-05-24T00:54:09.416Z,100026
2018-05-24T00:56:37.503Z,100032
2018-05-24T00:59:05.592Z,100029
2018-05-24T01:01:33.684Z,100026
2018-05-24T01:04:01.766Z,100021
2018-05-24T01:06:29.831Z,100023
2018-05-24T01:08:57.885Z,100013
2018-05-24T01:11:25.948Z,100010
2018-05-24T01:13:54.003Z,100008
2018-05-24T01:16:22.104Z,100013
2018-05-24T01:18:50.125Z,100010
2018-05-24T01:21:18.196Z,100012
2018-05-24T01:23:46.341Z,100024
2018-05-24T01:26:14.399Z,100029
2018-05-24T01:28:43.220Z,100030
2018-05-24T01:31:11.312Z,100026
2018-05-24T01:33:39.400Z,100032
2018-05-24T01:36:07.488Z,100029
2018-05-24T01:38:35.540Z,100027
2018-05-24T01:41:04.367Z,100028
2018-05-24T01:43:32.452Z,100029
2018-05-24T01:46:00.513Z,100030
2018-05-24T01:48:29.439Z,100032
2018-05-24T01:50:57.528Z,100035
2018-05-24T01:53:25.616Z,100036
2018-05-24T01:55:53.680Z,100038
2018-05-24T01:58:22.603Z,100040
2018-05-24T02:00:50.667Z,100047
2018-05-24T02:03:19.725Z,100049
2018-05-24T02:05:47.879Z,100039
2018-05-24T02:08:15.948Z,100046
2018-05-24T02:10:44.871Z,100041
2018-05-24T02:13:12.936Z,100041
2018-05-24T02:15:41.761Z,100040
2018-05-24T02:18:09.852Z,100046
2018-05-24T02:20:37.904Z,100040
2018-05-24T02:23:06.732Z,100044
2018-05-24T02:25:34.820Z,100043
2018-05-24T02:28:02.900Z,100045
2018-05-24T02:30:30.956Z,100045
2018-05-24T02:32:59.786Z,100039
2018-05-24T02:35:27.876Z,100036
2018-05-24T02:37:55.943Z,100035
2018-05-24T02:40:24.044Z,100037
2018-05-24T02:42:52.105Z,100036
2018-05-24T02:45:20.925Z,100030
2018-05-24T02:47:48.988Z,100031
2018-05-24T02:50:17.814Z,100028
2018-05-24T02:52:45.904Z,100023
2018-05-24T02:55:13.964Z,100024
2018-05-24T02:57:42.895Z,100021
2018-05-24T03:00:10.956Z,100017
2018-05-24T03:02:39.792Z,100019
2018-05-24T03:05:07.843Z,100014
2018-05-24T03:07:36.769Z,100009
2018-05-24T03:10:04.820Z,100011
2018-05-24T03:12:33.756Z,100010
2018-05-24T03:15:01.838Z,100005
2018-05-24T03:17:30.648Z,100001
2018-05-24T03:19:58.708Z,100005
2018-05-24T03:22:27.635Z,100004
2018-05-24T03:24:55.688Z,100003
2018-05-24T03:27:24.623Z,100005
2018-05-24T03:29:52.695Z,100000
2018-05-24T03:32:20.819Z,99995
2018-05-24T03:34:48.879Z,99999
2018-05-24T03:37:16.971Z,100001
2018-05-24T03:39:45.052Z,100001
2018-05-24T03:42:13.196Z,99999
2018-05-24T03:44:41.248Z,99995
2018-05-24T03:47:09.404Z,100003
2018-05-24T03:49:37.464Z,100004
2018-05-24T03:52:06.480Z,100006
2018-05-24T03:54:34.479Z,100004
2018-05-24T03:57:02.550Z,100008
2018-05-24T04:03:04.892Z,100026
2018-05-24T04:05:32.948Z,100024
2018-05-24T04:08:01.881Z,100020
2018-05-24T04:10:29.931Z,100020
2018-05-24T04:12:58.759Z,100013
2018-05-24T04:15:26.816Z,100023
2018-05-24T04:17:55.868Z,100021
2018-05-24T04:20:23.948Z,100025
2018-05-24T04:22:52.007Z,100025
2018-05-24T04:25:20.852Z,100028
2018-05-24T04:27:48.916Z,100031
2018-05-24T04:30:16.976Z,100032
2018-05-24T04:32:45.912Z,100033
2018-05-24T04:35:13.976Z,100026
2018-05-24T04:37:42.789Z,100021
2018-05-24T04:40:10.835Z,100022
2018-05-24T04:42:40.408Z,100019
2018-05-24T04:45:08.500Z,100023
2018-05-24T04:47:36.667Z,100022
2018-05-24T04:50:04.719Z,100024
2018-05-24T04:52:33.665Z,100020
2018-05-24T04:55:01.721Z,100023
2018-05-24T04:57:30.556Z,100025
2018-05-24T04:59:58.608Z,100021
2018-05-24T05:02:27.537Z,100023
2018-05-24T05:04:55.595Z,100032
2018-05-24T05:07:24.420Z,100027
2018-05-24T05:09:52.512Z,100027
2018-05-24T05:12:20.591Z,100019
2018-05-24T05:14:48.661Z,100019
2018-05-24T05:17:16.761Z,100024
2018-05-24T05:19:44.824Z,100020
2018-05-24T05:22:13.652Z,100019
2018-05-24T05:24:41.738Z,100023
2018-05-24T05:27:09.793Z,100020
2018-05-24T05:29:38.710Z,100018
2018-05-24T05:32:06.815Z,100016
2018-05-24T05:34:34.875Z,100018
2018-05-24T05:37:03.696Z,100022
2018-05-24T05:39:31.760Z,100025
2018-05-24T05:42:00.688Z,100030
2018-05-24T05:44:28.782Z,100029
2018-05-24T05:46:56.859Z,100029
2018-05-24T05:49:24.924Z,100028
2018-05-24T05:51:53.784Z,100029
2018-05-24T05:54:22.125Z,100037
2018-05-24T05:56:50.175Z,100031
2018-05-24T05:59:18.303Z,100026
2018-05-24T06:01:46.424Z,100032
2018-05-24T06:04:15.187Z,100036
2018-05-24T06:06:43.244Z,100036
2018-05-24T06:09:12.220Z,100034
2018-05-24T06:11:40.272Z,100035
2018-05-24T06:14:08.335Z,100040
2018-05-24T06:16:36.392Z,100046
2018-05-24T06:19:04.528Z,100046
2018-05-24T06:21:32.636Z,100045
2018-05-24T06:24:01.412Z,100048
2018-05-24T06:26:29.467Z,100053
2018-05-24T06:28:58.404Z,100060
2018-05-24T06:31:26.462Z,100064
2018-05-24T06:33:55.297Z,100070
2018-05-24T06:36:23.353Z,100068
2018-05-24T06:38:52.180Z,100074
2018-05-24T06:41:20.264Z,100078
2018-05-24T06:43:48.345Z,100081
2018-05-24T06:46:16.396Z,100083
2018-05-24T06:48:45.435Z,100083
2018-05-24T06:51:13.495Z,100082
2018-05-24T06:53:42.371Z,100081
2018-05-24T06:56:10.507Z,100083
2018-05-24T06:58:38.592Z,100087
2018-05-24T07:01:06.660Z,100082
2018-05-24T07:03:34.720Z,100083
2018-05-24T07:06:02.842Z,100079
2018-05-24T07:08:31.614Z,100072
2018-05-24T07:10:59.760Z,100066
2018-05-24T07:13:27.732Z,100080
2018-05-24T07:15:55.819Z,100070
2018-05-24T07:18:23.876Z,100066
2018-05-24T07:20:51.945Z,100065
2018-05-24T07:23:20.764Z,100063
2018-05-24T07:25:48.827Z,100062
2018-05-24T07:28:17.663Z,100057
2018-05-24T07:30:45.725Z,100045
2018-05-24T07:33:14.647Z,100051
2018-05-24T07:35:42.731Z,100047
2018-05-24T07:38:10.795Z,100045
2018-05-24T07:40:39.629Z,100042
2018-05-24T07:43:07.709Z,100039
2018-05-24T07:45:35.788Z,100038
2018-05-24T07:48:03.879Z,100038
2018-05-24T07:50:31.941Z,100042
2018-05-24T07:53:00.840Z,100034
2018-05-24T07:55:29.676Z,100040
2018-05-24T07:57:57.735Z,100035
2018-05-24T08:00:26.640Z,100030
2018-05-24T08:02:55.459Z,100036
2018-05-24T08:05:23.524Z,100035
2018-05-24T08:07:52.463Z,100032
2018-05-24T08:10:20.544Z,100040
2018-05-24T08:12:48.599Z,100045
2018-05-24T08:15:17.423Z,100043
2018-05-24T08:17:45.512Z,100045
2018-05-24T08:20:13.588Z,100042
2018-05-24T08:22:41.649Z,100045
2018-05-24T08:25:10.475Z,100044
2018-05-24T08:27:38.569Z,100042
2018-05-24T08:30:06.952Z,100042
2018-05-24T08:32:35.005Z,100045
2018-05-24T08:35:03.887Z,100047
2018-05-24T08:37:31.928Z,100048
2018-05-24T08:39:59.995Z,100045
2018-05-24T08:42:28.060Z,100041
2018-05-24T08:44:56.184Z,100039
2018-05-24T08:47:24.332Z,100038
2018-05-24T08:49:53.175Z,100048
2018-05-24T08:52:21.236Z,100048
2018-05-24T08:54:50.072Z,100045
2018-05-24T08:57:18.126Z,100045
2018-05-24T08:59:46.195Z,100049
2018-05-24T09:02:15.067Z,100045
2018-05-24T09:04:43.124Z,100044
2018-05-24T09:07:11.192Z,100047
2018-05-24T09:09:39.252Z,100041
2018-05-24T09:12:08.086Z,100041
2018-05-24T09:14:36.187Z,100041
2018-05-24T09:17:04.360Z,100040
2018-05-24T09:19:32.421Z,100039
2018-05-24T09:22:01.357Z,100044
2018-05-24T09:24:29.407Z,100043
2018-05-24T09:26:58.340Z,100039
2018-05-24T09:29:26.430Z,100041
2018-05-24T09:31:55.337Z,100040
2018-05-24T09:34:23.392Z,100041
2018-05-24T09:36:52.326Z,100043
2018-05-24T09:39:20.403Z,100038
2018-05-24T09:41:48.469Z,100037
2018-05-24T09:44:17.292Z,100035
2018-05-24T09:46:45.361Z,100037
2018-05-24T09:49:13.460Z,100032
2018-05-24T09:51:41.527Z,100032
2018-05-24T09:54:09.584Z,100033
2018-05-24T09:56:37.652Z,100023
2018-05-24T09:59:05.799Z,100016
2018-05-24T10:01:33.869Z,100025
2018-05-24T10:04:02.687Z,100017
2018-05-24T10:06:30.777Z,100014
2018-05-24T10:08:58.861Z,100011
2018-05-24T10:11:26.937Z,100016
2018-05-24T10:13:55.744Z,100006
2018-05-24T10:16:23.920Z,100006
2018-05-24T10:18:51.859Z,100003
2018-05-24T10:21:20.716Z,100008
2018-05-24T10:23:48.800Z,100000
2018-05-24T10:26:16.887Z,99997
2018-05-24T10:28:44.933Z,99994
2018-05-24T10:31:13.768Z,99995
2018-05-24T10:33:41.812Z,99990
2018-05-24T10:36:09.872Z,99992
2018-05-24T10:38:37.921Z,99992
2018-05-24T10:41:05.972Z,99986
2018-05-24T10:43:34.820Z,99994
2018-05-24T10:46:02.872Z,99990
2018-05-24T10:48:31.696Z,99977
2018-05-24T10:50:59.850Z,99977
2018-05-24T10:53:27.871Z,99971
2018-05-24T10:55:56.032Z,99973
2018-05-24T10:58:23.996Z,99969
2018-05-24T11:00:52.059Z,99961
2018-05-24T11:03:20.106Z,99960
2018-05-24T11:05:48.168Z,99958
2018-05-24T11:08:16.996Z,99950
2018-05-24T11:10:45.040Z,99951
2018-05-24T11:13:13.863Z,99944
2018-05-24T11:15:41.907Z,99934
2018-05-24T11:18:11.469Z,99933
2018-05-24T11:20:40.392Z,99934
2018-05-24T11:23:08.444Z,99942
2018-05-24T11:25:37.280Z,99942
2018-05-24T11:28:05.335Z,99939
2018-05-24T11:30:34.164Z,99940
2018-05-24T11:33:02.220Z,99935
2018-05-24T11:35:31.032Z,99931
2018-05-24T11:37:59.951Z,99929
2018-05-24T11:40:27.995Z,99932
2018-05-24T11:42:56.125Z,99937
2018-05-24T11:45:24.176Z,99931
2018-05-24T11:47:52.996Z,99924
2018-05-24T11:50:21.101Z,99932
2018-05-24T11:52:49.179Z,99937
2018-05-24T11:55:17.226Z,99931
2018-05-24T11:57:45.272Z,99932
2018-05-24T12:00:13.332Z,99930
2018-05-24T12:02:41.424Z,99928
2018-05-24T12:05:09.536Z,99930
2018-05-24T12:07:37.567Z,99927
2018-05-24T12:10:06.396Z,99932
2018-05-24T12:12:34.479Z,99936
2018-05-24T12:15:02.661Z,99939
2018-05-24T12:17:30.643Z,99935
2018-05-24T12:19:58.736Z,99930
2018-05-24T12:22:26.788Z,99926
2018-05-24T12:24:55.620Z,99927
2018-05-24T12:27:23.681Z,99924
2018-05-24T12:29:52.496Z,99925
2018-05-24T12:32:20.551Z,99925
2018-05-24T12:34:48.596Z,99920
2018-05-24T12:37:16.657Z,99918
2018-05-24T12:39:44.752Z,99915
2018-05-24T12:42:12.804Z,99919
2018-05-24T12:44:41.615Z,99911
2018-05-24T12:47:09.717Z,99912
2018-05-24T12:49:38.507Z,99908
2018-05-24T12:52:06.559Z,99902
2018-05-24T12:54:34.603Z,99896
2018-05-24T12:57:02.675Z,99897
2018-05-24T12:59:30.777Z,99892
2018-05-24T13:01:58.771Z,99890
2018-05-24T13:04:26.821Z,99887
2018-05-24T13:06:54.910Z,99891
2018-05-24T13:09:23.004Z,99888
2018-05-24T13:11:51.053Z,99876
2018-05-24T13:14:19.883Z,99876
2018-05-24T13:16:47.932Z,99876
2018-05-24T13:19:16.761Z,99877
2018-05-24T13:21:44.851Z,99877
2018-05-24T13:24:12.913Z,99872
2018-05-24T13:26:41.740Z,99864
2018-05-24T13:29:10.584Z,99862
2018-05-24T13:31:38.651Z,99857
2018-05-24T13:34:06.916Z,99861
2018-05-24T13:36:34.967Z,99860
2018-05-24T13:39:03.020Z,99853
2018-05-24T13:41:31.068Z,99860
2018-05-24T13:43:59.155Z,99854
2018-05-24T13:46:27.243Z,99850
2018-05-24T13:48:55.300Z,99853
2018-05-24T13:51:24.115Z,99853
2018-05-24T13:53:52.171Z,99855
2018-05-24T13:56:20.254Z,99852
2018-05-24T13:58:48.404Z,99864
2018-05-24T14:01:16.472Z,99862
2018-05-24T14:03:44.527Z,99868
2018-05-24T14:06:13.355Z,99865
2018-05-24T14:08:41.720Z,99863
2018-05-24T14:11:10.531Z,99865
2018-05-24T14:13:39.363Z,99863
2018-05-24T14:16:07.416Z,99864
2018-05-24T14:18:36.344Z,99861
2018-05-24T14:21:04.388Z,99871
2018-05-24T14:23:32.445Z,99864
2018-05-24T14:26:00.486Z,99858
2018-05-24T14:28:28.543Z,99860
2018-05-24T14:30:57.388Z,99870
2018-05-24T14:33:25.469Z,99863
2018-05-24T14:35:53.555Z,99862
2018-05-24T14:38:21.625Z,99860
2018-05-24T14:40:49.670Z,99848
2018-05-24T14:43:17.730Z,99845
2018-05-24T14:45:45.771Z,99840
2018-05-24T14:48:13.827Z,99838
2018-05-24T14:50:41.964Z,99844
2018-05-24T14:53:10.044Z,99846
2018-05-24T14:55:38.955Z,99851
2018-05-24T14:58:06.995Z,99846
2018-05-24T15:00:35.048Z,99841
2018-05-24T15:03:03.107Z,99838
2018-05-24T15:05:31.195Z,99834
2018-05-24T15:07:59.272Z,99833
2018-05-24T15:10:27.364Z,99837
2018-05-24T15:12:55.412Z,99838
2018-05-24T15:15:24.265Z,99842
2018-05-24T15:17:52.336Z,99837
2018-05-24T15:20:20.391Z,99847
2018-05-24T15:22:49.200Z,99843
2018-05-24T15:25:17.250Z,99842
2018-05-24T15:27:45.304Z,99843
2018-05-24T15:30:13.360Z,99841
2018-05-24T15:32:41.452Z,99850
2018-05-24T15:35:09.544Z,99855
2018-05-24T15:37:37.636Z,99859
2018-05-24T15:40:05.722Z,99859
2018-05-24T15:42:33.767Z,99852
2018-05-24T15:45:02.605Z,99861
2018-05-24T15:47:30.687Z,99857
2018-05-24T15:49:58.744Z,99858
2018-05-24T15:52:27.560Z,99852
2018-05-24T15:54:55.662Z,99846
2018-05-24T15:57:23.747Z,99847
2018-05-24T15:59:51.802Z,99854
2018-05-24T16:02:20.619Z,99849
2018-05-24T16:04:48.716Z,99853
2018-05-24T16:07:16.767Z,99851
2018-05-24T16:09:45.593Z,99857
2018-05-24T16:12:13.643Z,99850
2018-05-24T16:14:41.691Z,99845
2018-05-24T16:17:09.760Z,99843
2018-05-24T16:19:37.896Z,99840
2018-05-24T16:22:06.027Z,99842
2018-05-24T16:24:34.093Z,99834
2018-05-24T16:27:03.019Z,99823
2018-05-24T16:29:31.076Z,99827
2018-05-24T16:32:00.008Z,99825
2018-05-24T16:34:28.093Z,99823
2018-05-24T16:36:56.144Z,99826
2018-05-24T16:39:24.963Z,99828
2018-05-24T16:41:53.021Z,99827
2018-05-24T16:44:21.064Z,99816
2018-05-24T16:46:49.119Z,99816
2018-05-24T16:49:17.176Z,99822
2018-05-24T16:51:45.296Z,99823
2018-05-24T16:54:13.389Z,99828
2018-05-24T16:56:41.395Z,99834
2018-05-24T16:59:09.450Z,99824
2018-05-24T17:01:37.533Z,99826
2018-05-24T17:04:05.623Z,99820
2018-05-24T17:06:33.715Z,99819
2018-05-24T17:09:01.800Z,99819
2018-05-24T17:11:29.860Z,99810
2018-05-24T17:13:58.675Z,99807
2018-05-24T17:16:26.728Z,99814
2018-05-24T17:18:55.544Z,99815
2018-05-24T17:21:24.436Z,99825
2018-05-24T17:23:53.251Z,99830
2018-05-24T17:26:22.184Z,99834
2018-05-24T17:28:50.234Z,99840
2018-05-24T17:31:19.072Z,99839
2018-05-24T17:33:47.115Z,99845
2018-05-24T17:36:15.949Z,99843
2018-05-24T17:38:44.016Z,99847
2018-05-24T17:41:12.940Z,99843
2018-05-24T17:43:40.988Z,99839
2018-05-24T17:46:09.884Z,99840
2018-05-24T17:48:38.696Z,99845
2018-05-24T17:51:07.515Z,99842
2018-05-24T17:53:36.346Z,99843
2018-05-24T17:56:04.424Z,99842
2018-05-24T18:01:42.397Z,99854
2018-05-24T18:04:10.526Z,99849
2018-05-24T18:06:38.562Z,99850
2018-05-24T18:09:06.633Z,99850
2018-05-24T18:11:34.679Z,99853
2018-05-24T18:14:03.500Z,99854
2018-05-24T18:16:32.306Z,99852
2018-05-24T18:19:00.346Z,99856
2018-05-24T18:21:28.479Z,99861
2018-05-24T18:23:56.518Z,99864
2018-05-24T18:26:24.567Z,99869
2018-05-24T18:28:52.630Z,99873
2018-05-24T18:31:20.674Z,99880
2018-05-24T18:33:48.818Z,99888
2018-05-24T18:36:16.914Z,99883
2018-05-24T18:38:44.982Z,99890
2018-05-24T18:41:13.024Z,99885
2018-05-24T18:43:41.150Z,99894
2018-05-24T18:46:09.219Z,99900
2018-05-24T18:48:37.276Z,99902
2018-05-24T18:51:05.330Z,99907
2018-05-24T18:53:33.367Z,99913
2018-05-24T18:56:02.307Z,99916
2018-05-24T18:58:30.318Z,99921
2018-05-24T19:00:58.374Z,99921
2018-05-24T19:03:26.406Z,99919
2018-05-24T19:05:54.457Z,99923
2018-05-24T19:08:22.513Z,99928
2018-05-24T19:10:50.559Z,99930
2018-05-24T19:13:18.678Z,99931
2018-05-24T19:15:46.722Z,99931
2018-05-24T19:18:14.770Z,99935
2018-05-24T19:20:42.807Z,99934
2018-05-24T19:23:11.618Z,99939
2018-05-24T19:25:40.454Z,99935
2018-05-24T19:28:08.516Z,99936
2018-05-24T19:30:36.604Z,99937
2018-05-24T19:33:04.672Z,99939
2018-05-24T19:35:33.482Z,99941
2018-05-24T19:38:02.282Z,99945
2018-05-24T19:40:31.082Z,99948
2018-05-24T19:42:59.995Z,99948
2018-05-24T19:45:28.035Z,99950
2018-05-24T19:47:56.138Z,99951
2018-05-24T19:50:24.174Z,99952
2018-05-24T19:52:52.959Z,99959
2018-05-24T19:55:20.997Z,99958
2018-05-24T19:57:49.841Z,99957
2018-05-24T20:00:17.876Z,99962
2018-05-24T20:02:45.919Z,99961
2018-05-24T20:05:13.972Z,99967
2018-05-24T20:07:42.799Z,99965
2018-05-24T20:10:10.887Z,99969
2018-05-24T20:12:39.697Z,99960
2018-05-24T20:15:10.607Z,99967
2018-05-24T20:17:39.444Z,99968
2018-05-24T20:20:07.524Z,99967
2018-05-24T20:22:35.523Z,99969
2018-05-24T20:25:03.575Z,99965
2018-05-24T20:27:32.390Z,99961
2018-05-24T20:30:00.533Z,99963
2018-05-24T20:32:29.260Z,99961
2018-05-24T20:34:58.058Z,99960
2018-05-24T20:37:27.086Z,99955
2018-05-24T20:39:55.126Z,99954
2018-05-24T20:42:23.253Z,99957
2018-05-24T20:44:51.299Z,99957
2018-05-24T20:47:19.427Z,99958
2018-05-24T20:49:47.468Z,99955
2018-05-24T20:52:15.596Z,99957
2018-05-24T20:54:43.639Z,99961
2018-05-24T20:57:11.689Z,99960
2018-05-24T20:59:39.746Z,99961
2018-05-24T21:02:07.790Z,99963
2018-05-24T21:04:35.830Z,99967
2018-05-24T21:07:03.881Z,99965
2018-05-24T21:09:32.683Z,99963
2018-05-24T21:12:01.501Z,99965
2018-05-24T21:14:29.590Z,99964
2018-05-24T21:16:57.634Z,99965
2018-05-24T21:19:25.678Z,99965
2018-05-24T21:21:53.723Z,99972
2018-05-24T21:24:22.547Z,99971
2018-05-24T21:26:50.586Z,99973
2018-05-24T21:29:18.702Z,99971
2018-05-24T21:31:47.517Z,99970
2018-05-24T21:34:15.567Z,99970
2018-05-24T21:36:43.697Z,99971
2018-05-24T21:39:11.742Z,99977
2018-05-24T21:41:39.782Z,99979
2018-05-24T21:44:07.855Z,99975
2018-05-24T21:46:35.891Z,99976
2018-05-24T21:49:03.930Z,99979
2018-05-24T21:51:31.971Z,99976
2018-05-24T21:54:00.806Z,99982
2018-05-24T21:56:28.894Z,99975
2018-05-24T21:58:56.946Z,99981
2018-05-24T22:01:25.755Z,99977
2018-05-24T22:03:54.565Z,99979
2018-05-24T22:06:23.378Z,99978
2018-05-24T22:08:51.423Z,99978
2018-05-24T22:11:19.471Z,99982
2018-05-24T22:13:47.516Z,99977
2018-05-24T22:16:15.576Z,99979
2018-05-24T22:18:43.601Z,99986
2018-05-24T22:21:11.683Z,99981
2018-05-24T22:23:39.734Z,99982
2018-05-24T22:26:07.855Z,99979
2018-05-24T22:28:35.938Z,99981
2018-05-24T22:31:04.030Z,99979
2018-05-24T22:33:32.181Z,99981
2018-05-24T22:36:00.218Z,99980
2018-05-24T22:38:28.266Z,99981
2018-05-24T22:40:57.085Z,99982
2018-05-24T22:43:25.126Z,99986
2018-05-24T22:45:53.163Z,99978
2018-05-24T22:48:21.213Z,99979
2018-05-24T22:50:50.046Z,99973
2018-05-24T22:53:18.078Z,99969
2018-05-24T22:55:46.133Z,99964
2018-05-24T22:58:14.196Z,99968
2018-05-24T23:00:42.252Z,99970
2018-05-24T23:03:11.084Z,99975
2018-05-24T23:05:39.865Z,99979
2018-05-24T23:08:08.661Z,99978
2018-05-24T23:10:37.582Z,99978
2018-05-24T23:13:05.631Z,99979
2018-05-24T23:15:33.683Z,99978
2018-05-24T23:18:01.718Z,99981
2018-05-24T23:20:30.525Z,99975
2018-05-24T23:22:59.329Z,99970
2018-05-24T23:25:28.242Z,99973
2018-05-24T23:27:56.326Z,99975
2018-05-24T23:30:24.375Z,99975
2018-05-24T23:32:52.502Z,99974
2018-05-24T23:35:20.543Z,99973
2018-05-24T23:37:48.670Z,99976
2018-05-24T23:40:16.764Z,99976
2018-05-24T23:42:44.799Z,99983
2018-05-24T23:45:12.864Z,99988
2018-05-24T23:47:40.946Z,99985
2018-05-24T23:50:08.966Z,99997
2018-05-24T23:52:37.775Z,99997
2018-05-24T23:55:05.983Z,99998
2018-05-24T23:57:34.069Z,99999
